Terminal Aerodrome Forecast
Issued by NWS

Home | Current Version | Previous Version | Text Only | Print | Product List | Glossary On
Versions: 1 2 3 4 5 6 7 8 9 10 11 12 13 14 15 16 17 18 19 20 21 22 23
000
FTUS46 KPQR 231744
TAFONP
TAF
KONP 231744Z 2318/2418 20012G20KT 6SM -SHRA BR SCT015 OVC025
     FM240400 20015G25KT 6SM -RA BR SCT007 BKN015 OVC025
     FM240600 19020G30KT 3SM -RA BKN007 OVC015=

USA.gov is the U.S. government's official web portal to all federal, state and local government web resources and services.